Latest  Newer  Older  Last 2 hours slideshow  Last 24 hours slideshow  Refresh every 5 minutes 
Current image  Latest image  Rain/snow radar  Cloud coverage sat images 

All time is UTC (add 2 hours to UTC in wintertime, 3 hours to UTC in DST for Latvia local time)

2020/11/30 04:50 EVRA 300450Z 21002KT 5000 SN FEW004 OVC006 M01/M01 Q1019 R18/590295 TEMPO 3000
2020/11/30 04:50 EVLA 300450Z AUTO VRB01KT 9999 OVC047/// M00/M01 Q1020
2020/11/30 04:50 EVVA 300450Z AUTO 25001KT CAVOK 01/00 Q1020
2020/11/30 04:50 EYKA 300450Z 30003KT 250V350 9000 OVC004 M00/M02 Q1020 R08/290095
2020/11/30 04:50 EYPA 300450Z AUTO VRB01KT 9999 OVC056/// M01/M02 Q1021
2020/11/30 04:50 EYSA 300450Z 31003KT 7000 -SN BKN005 OVC060 M01/M01 Q1020 R32R/29//95 R32L/29//95 YLO NOSIG
2020/11/30 04:50 EYVI 300450Z 32003KT 280V350 3100 BR OVC001 M00/M01 Q1018 R01/2///95 TEMPO 1500 BR
2020/11/30 04:50 EEKA 300450Z 08003KT 9999 -RA BKN009 01/01 Q1020
2020/11/30 04:50 EEKE 300450Z AUTO 00000KT 9999NDV NSC M01/M01 Q1020

2020/11/30 04:50 EETN 300450Z 13002KT 8000 -SN SCT015 OVC044 M01/M02 Q1020 R08/490195 TEMPO 3000 SN
2020/11/30 04:50 EETU 300450Z AUTO 08004KT 5000 -SN OVC003/// M00/M01 Q1019
   RIGA AIRPORT     EVRA               56 55N  023 58E   10   X     T          6 LV
   LIEPAJA INTL     EVLA        26406  56 31N  021 06E    4   X                8 LV
   VENTPILS         EVVA               57 21N  021 33E    6   X                8 LV
   KAUNAS           EYKA               54 54N  023 55E   77   X     T          6 LT
   PALANGA INTL     EYPA               55 55N  021 03E   10   X                6 LT
   SIAULIAI INTL    EYSA               55 54N  023 24E  135   X     T          6 LT
   VILNIUS INTL     EYVI        26730  54 38N  025 17E  197   X     T          6 LT
   KARDLA           EEKA        26116  58 59N  022 50E    4   X                8 EE
   KURESSAARE       EEKE               58 14N  022 31E    4   X                8 EE
   PARNU            EEPU               58 25N  024 28E   14   X                8 EE
   TALLINN          EETN        26038  59 24N  024 49E   40   X     T          8 EE
   TARTU            EETU               58 19N  026 41E   67   X                8 EE